Airfield :
LOGIN :

Register | Disclaimer

   EN    FR    IT 

 










Legend :    VFR   Marginal VFR   IFR   Intensive IFR   Very Intensive IFR
Visi :
Ceiling :
>= 8 km
>= 3000ft
5 to 8 km
1000 to 3000 ft
1500m to 5 km
500 to 1000 ft
800 to 1500m
200 to 500 ft
< 800m
< 200 ft
Symbols :   Thunderstorms  Fog  Heavy snow  Heavy precipitations  Wind > 20 kt
SIGMETs :     Misc.  Thunderstorms  Icing  Turbulence  Mountain Waves  Volcanic Ashes







- Airport Elevation : 1768 ft


LEHC - Huesca Pirineos

CURRENT METAR :
  • 222000Z AUTO 05006KT 9999 NCD 28/13 Q1021

EXPIRED METARs :
  • 221930Z AUTO 06008KT 020V090 9999 NCD 30/13 Q1021
  • 221900Z AUTO 07008KT 040V100 9999 NCD 31/13 Q1021
  • 221830Z AUTO 08010KT 050V140 9999 NCD 32/11 Q1020
  • 221800Z AUTO 08011KT 060V120 CAVOK 34/09 Q1020
  • 221730Z AUTO 08010KT 050V120 9999 NCD 35/10 Q1020

TAF TAF LEHC
Valid from the 22 at 15:00 until the 23 at 15:00 UTC


221400Z 2215/2315 16010KT 9999 FEW040 TX36/2315Z TN20/2305Z
TEMPO 2215/2220 15015G25KT
BECMG 2220/2222 08012KT
BECMG 2302/2304 07006KT
No reported NOTAMs for that airfield.
2 SIGMETs reported for the Madrid FIR (LECM) :
 
Embedded thunderstorms
LECM SIGMET 3 VALID 221900/222200 LEVA
LECM MADRID FIR/UIR EMBD TS FCST WI N4020 W00640 - N4050 W00430 - N3930 W004 - N39 W00540 - N4020 W00640 TOP FL400 MOV N 10KT NC=
Embedded thunderstorms
LECM SIGMET 2 VALID 221900/222200 LEVA
LECM MADRID FIR/UIR EMBD TS FCST WI N42 W00640 - N4350 W00620 - N4350 W00350 - N42 W004 - N4050 W00630 - N42 W00640 TOP FL400 MOV N 10KT NC=



MET'MAP, your aeronautical weather chart ! - Copyright ORBIFLY December 2007 - Disclaimer

ORBIFLY MET'MAP TEAM :

Programming & Development : Alexandra Zaïnal
Concept & Development : Baudouin d'Aumeries
Co-Development & Prog : Marc-Olivier Méhu
Technical & hardware support : Manuel Goepfert

Contact : metmap@orbifly.com




SOURCES & CREDITS :

   NOAA